sensor_id;sensor_type;location;lat;lon;timestamp;P1;durP1;ratioP1;P2;durP2;ratioP2
77099;SDS011;66602;48.922;2.414;2023-04-19T00:02:01;21.15;;;16.85;;
77099;SDS011;66602;48.922;2.414;2023-04-19T00:04:27;27.80;;;17.25;;
77099;SDS011;66602;48.922;2.414;2023-04-19T00:06:52;29.02;;;18.65;;
77099;SDS011;66602;48.922;2.414;2023-04-19T00:09:17;21.60;;;17.05;;
77099;SDS011;66602;48.922;2.414;2023-04-19T00:11:43;23.42;;;18.27;;
77099;SDS011;66602;48.922;2.414;2023-04-19T00:14:08;26.42;;;17.65;;
77099;SDS011;66602;48.922;2.414;2023-04-19T00:16:34;24.98;;;17.38;;
77099;SDS011;66602;48.922;2.414;2023-04-19T00:19:00;26.05;;;17.63;;
77099;SDS011;66602;48.922;2.414;2023-04-19T00:21:26;23.58;;;18.13;;
77099;SDS011;66602;48.922;2.414;2023-04-19T00:23:51;31.27;;;18.75;;
77099;SDS011;66602;48.922;2.414;2023-04-19T00:26:18;27.65;;;17.75;;
77099;SDS011;66602;48.922;2.414;2023-04-19T00:28:44;19.92;;;15.93;;
77099;SDS011;66602;48.922;2.414;2023-04-19T00:31:09;29.13;;;18.25;;
77099;SDS011;66602;48.922;2.414;2023-04-19T00:33:35;23.92;;;15.82;;
77099;SDS011;66602;48.922;2.414;2023-04-19T00:36:00;16.27;;;14.13;;
77099;SDS011;66602;48.922;2.414;2023-04-19T00:38:27;19.48;;;14.48;;
77099;SDS011;66602;48.922;2.414;2023-04-19T00:40:52;19.45;;;14.13;;
77099;SDS011;66602;48.922;2.414;2023-04-19T00:43:18;18.85;;;14.77;;
77099;SDS011;66602;48.922;2.414;2023-04-19T00:45:44;17.65;;;15.30;;
77099;SDS011;66602;48.922;2.414;2023-04-19T00:48:10;18.65;;;15.25;;
77099;SDS011;66602;48.922;2.414;2023-04-19T00:50:37;15.48;;;13.88;;
77099;SDS011;66602;48.922;2.414;2023-04-19T00:53:02;15.23;;;13.63;;
77099;SDS011;66602;48.922;2.414;2023-04-19T00:55:28;14.73;;;13.23;;
77099;SDS011;66602;48.922;2.414;2023-04-19T00:57:53;13.50;;;12.13;;
77099;SDS011;66602;48.922;2.414;2023-04-19T01:00:19;13.52;;;12.23;;
77099;SDS011;66602;48.922;2.414;2023-04-19T01:02:45;13.50;;;12.30;;
77099;SDS011;66602;48.922;2.414;2023-04-19T01:05:11;13.55;;;12.23;;
77099;SDS011;66602;48.922;2.414;2023-04-19T01:07:37;12.90;;;11.60;;
77099;SDS011;66602;48.922;2.414;2023-04-19T01:10:02;13.10;;;11.77;;
77099;SDS011;66602;48.922;2.414;2023-04-19T01:12:28;12.57;;;11.48;;
77099;SDS011;66602;48.922;2.414;2023-04-19T01:14:53;12.45;;;11.38;;
77099;SDS011;66602;48.922;2.414;2023-04-19T01:17:19;12.60;;;11.32;;
77099;SDS011;66602;48.922;2.414;2023-04-19T01:19:45;13.20;;;11.88;;
77099;SDS011;66602;48.922;2.414;2023-04-19T01:22:19;13.40;;;12.10;;
77099;SDS011;66602;48.922;2.414;2023-04-19T01:24:46;15.52;;;13.70;;
77099;SDS011;66602;48.922;2.414;2023-04-19T01:27:12;13.15;;;11.85;;
77099;SDS011;66602;48.922;2.414;2023-04-19T01:29:38;13.95;;;12.45;;
77099;SDS011;66602;48.922;2.414;2023-04-19T01:32:04;12.88;;;11.70;;
77099;SDS011;66602;48.922;2.414;2023-04-19T01:34:29;13.30;;;12.00;;
77099;SDS011;66602;48.922;2.414;2023-04-19T01:36:55;13.82;;;12.52;;
77099;SDS011;66602;48.922;2.414;2023-04-19T01:39:20;12.85;;;11.55;;
77099;SDS011;66602;48.922;2.414;2023-04-19T01:41:46;13.57;;;12.15;;
77099;SDS011;66602;48.922;2.414;2023-04-19T01:44:11;13.10;;;11.90;;
77099;SDS011;66602;48.922;2.414;2023-04-19T01:46:37;21.23;;;11.52;;
77099;SDS011;66602;48.922;2.414;2023-04-19T01:49:03;12.90;;;11.60;;
77099;SDS011;66602;48.922;2.414;2023-04-19T01:51:28;12.43;;;11.13;;
77099;SDS011;66602;48.922;2.414;2023-04-19T01:53:54;14.52;;;12.27;;
77099;SDS011;66602;48.922;2.414;2023-04-19T01:56:20;14.07;;;12.48;;
77099;SDS011;66602;48.922;2.414;2023-04-19T01:58:46;13.45;;;12.25;;
77099;SDS011;66602;48.922;2.414;2023-04-19T02:01:11;12.20;;;11.07;;
77099;SDS011;66602;48.922;2.414;2023-04-19T02:03:40;13.85;;;12.40;;
77099;SDS011;66602;48.922;2.414;2023-04-19T02:06:09;14.43;;;12.23;;
77099;SDS011;66602;48.922;2.414;2023-04-19T02:08:36;15.05;;;11.85;;
77099;SDS011;66602;48.922;2.414;2023-04-19T02:11:06;14.55;;;12.88;;
77099;SDS011;66602;48.922;2.414;2023-04-19T02:13:33;16.25;;;12.45;;
77099;SDS011;66602;48.922;2.414;2023-04-19T02:15:58;18.67;;;12.80;;
77099;SDS011;66602;48.922;2.414;2023-04-19T02:18:26;20.95;;;14.23;;
77099;SDS011;66602;48.922;2.414;2023-04-19T02:20:54;21.80;;;15.82;;
77099;SDS011;66602;48.922;2.414;2023-04-19T02:23:19;21.35;;;15.13;;
77099;SDS011;66602;48.922;2.414;2023-04-19T02:25:45;18.23;;;14.98;;
77099;SDS011;66602;48.922;2.414;2023-04-19T02:28:10;23.95;;;17.02;;
77099;SDS011;66602;48.922;2.414;2023-04-19T02:30:36;27.20;;;16.98;;
77099;SDS011;66602;48.922;2.414;2023-04-19T02:33:02;22.75;;;16.65;;
77099;SDS011;66602;48.922;2.414;2023-04-19T02:35:27;20.42;;;15.25;;
77099;SDS011;66602;48.922;2.414;2023-04-19T02:37:53;20.67;;;15.07;;
77099;SDS011;66602;48.922;2.414;2023-04-19T02:40:18;17.65;;;15.13;;
77099;SDS011;66602;48.922;2.414;2023-04-19T02:42:45;25.42;;;16.70;;
77099;SDS011;66602;48.922;2.414;2023-04-19T02:45:10;20.55;;;15.25;;
77099;SDS011;66602;48.922;2.414;2023-04-19T02:47:36;19.95;;;14.60;;
77099;SDS011;66602;48.922;2.414;2023-04-19T02:50:01;19.33;;;13.13;;
77099;SDS011;66602;48.922;2.414;2023-04-19T02:52:27;21.35;;;13.88;;
77099;SDS011;66602;48.922;2.414;2023-04-19T02:54:53;16.25;;;12.93;;
77099;SDS011;66602;48.922;2.414;2023-04-19T02:57:18;16.33;;;12.68;;
77099;SDS011;66602;48.922;2.414;2023-04-19T02:59:44;13.13;;;11.82;;
77099;SDS011;66602;48.922;2.414;2023-04-19T03:02:09;15.13;;;12.10;;
77099;SDS011;66602;48.922;2.414;2023-04-19T03:04:34;15.75;;;13.05;;
77099;SDS011;66602;48.922;2.414;2023-04-19T03:07:00;16.80;;;13.95;;
77099;SDS011;66602;48.922;2.414;2023-04-19T03:09:26;15.25;;;12.05;;
77099;SDS011;66602;48.922;2.414;2023-04-19T03:11:51;16.63;;;12.07;;
77099;SDS011;66602;48.922;2.414;2023-04-19T03:14:17;14.45;;;13.00;;
77099;SDS011;66602;48.922;2.414;2023-04-19T03:16:43;16.92;;;13.50;;
77099;SDS011;66602;48.922;2.414;2023-04-19T03:19:08;14.88;;;13.23;;
77099;SDS011;66602;48.922;2.414;2023-04-19T03:21:34;16.48;;;12.95;;
77099;SDS011;66602;48.922;2.414;2023-04-19T03:23:59;14.07;;;12.27;;
77099;SDS011;66602;48.922;2.414;2023-04-19T03:26:25;13.90;;;12.23;;
77099;SDS011;66602;48.922;2.414;2023-04-19T03:28:51;12.88;;;11.68;;
77099;SDS011;66602;48.922;2.414;2023-04-19T03:31:16;13.07;;;11.98;;
77099;SDS011;66602;48.922;2.414;2023-04-19T03:33:42;13.60;;;12.25;;
77099;SDS011;66602;48.922;2.414;2023-04-19T03:36:07;13.55;;;11.80;;
77099;SDS011;66602;48.922;2.414;2023-04-19T03:38:33;13.70;;;12.40;;
77099;SDS011;66602;48.922;2.414;2023-04-19T03:40:59;17.33;;;12.45;;
77099;SDS011;66602;48.922;2.414;2023-04-19T03:43:24;13.55;;;11.90;;
77099;SDS011;66602;48.922;2.414;2023-04-19T03:45:50;16.65;;;11.45;;
77099;SDS011;66602;48.922;2.414;2023-04-19T03:48:16;13.50;;;12.23;;
77099;SDS011;66602;48.922;2.414;2023-04-19T03:50:41;11.60;;;10.50;;
77099;SDS011;66602;48.922;2.414;2023-04-19T03:53:07;11.95;;;10.73;;
77099;SDS011;66602;48.922;2.414;2023-04-19T03:55:33;12.00;;;10.90;;
77099;SDS011;66602;48.922;2.414;2023-04-19T03:57:59;15.73;;;12.25;;
77099;SDS011;66602;48.922;2.414;2023-04-19T04:00:24;16.33;;;13.35;;
77099;SDS011;66602;48.922;2.414;2023-04-19T04:02:51;16.17;;;12.75;;
77099;SDS011;66602;48.922;2.414;2023-04-19T04:05:17;25.38;;;15.05;;
77099;SDS011;66602;48.922;2.414;2023-04-19T04:07:42;21.80;;;14.77;;
77099;SDS011;66602;48.922;2.414;2023-04-19T04:10:07;14.93;;;13.10;;
77099;SDS011;66602;48.922;2.414;2023-04-19T04:12:33;21.55;;;14.35;;
77099;SDS011;66602;48.922;2.414;2023-04-19T04:14:59;22.00;;;14.88;;
77099;SDS011;66602;48.922;2.414;2023-04-19T04:17:24;17.13;;;13.48;;
77099;SDS011;66602;48.922;2.414;2023-04-19T04:19:50;22.67;;;14.48;;
77099;SDS011;66602;48.922;2.414;2023-04-19T04:22:15;17.20;;;14.38;;
77099;SDS011;66602;48.922;2.414;2023-04-19T04:24:41;17.95;;;13.73;;
77099;SDS011;66602;48.922;2.414;2023-04-19T04:27:08;23.15;;;13.52;;
77099;SDS011;66602;48.922;2.414;2023-04-19T04:29:38;14.65;;;13.10;;
77099;SDS011;66602;48.922;2.414;2023-04-19T04:32:06;22.20;;;13.77;;
77099;SDS011;66602;48.922;2.414;2023-04-19T04:34:37;14.90;;;13.23;;
77099;SDS011;66602;48.922;2.414;2023-04-19T04:37:03;16.38;;;12.68;;
77099;SDS011;66602;48.922;2.414;2023-04-19T04:39:29;20.83;;;14.88;;
77099;SDS011;66602;48.922;2.414;2023-04-19T04:41:55;17.65;;;13.65;;
77099;SDS011;66602;48.922;2.414;2023-04-19T04:44:23;17.67;;;13.48;;
77099;SDS011;66602;48.922;2.414;2023-04-19T04:46:49;18.77;;;14.32;;
77099;SDS011;66602;48.922;2.414;2023-04-19T04:49:14;18.98;;;13.60;;
77099;SDS011;66602;48.922;2.414;2023-04-19T04:51:40;16.60;;;13.95;;
77099;SDS011;66602;48.922;2.414;2023-04-19T04:54:05;18.20;;;14.18;;
77099;SDS011;66602;48.922;2.414;2023-04-19T04:56:31;18.83;;;14.07;;
77099;SDS011;66602;48.922;2.414;2023-04-19T04:58:56;21.15;;;13.85;;
77099;SDS011;66602;48.922;2.414;2023-04-19T05:01:22;18.33;;;13.85;;
77099;SDS011;66602;48.922;2.414;2023-04-19T05:03:48;16.33;;;13.75;;
77099;SDS011;66602;48.922;2.414;2023-04-19T05:06:14;15.65;;;12.52;;
77099;SDS011;66602;48.922;2.414;2023-04-19T05:08:39;17.42;;;13.30;;
77099;SDS011;66602;48.922;2.414;2023-04-19T05:11:06;17.35;;;14.30;;
77099;SDS011;66602;48.922;2.414;2023-04-19T05:13:32;14.60;;;13.07;;
77099;SDS011;66602;48.922;2.414;2023-04-19T05:15:58;14.40;;;12.68;;
77099;SDS011;66602;48.922;2.414;2023-04-19T05:18:23;19.75;;;13.60;;
77099;SDS011;66602;48.922;2.414;2023-04-19T05:20:49;15.25;;;12.38;;
77099;SDS011;66602;48.922;2.414;2023-04-19T05:23:15;15.48;;;12.85;;
77099;SDS011;66602;48.922;2.414;2023-04-19T05:25:41;15.05;;;12.48;;
77099;SDS011;66602;48.922;2.414;2023-04-19T05:28:07;17.20;;;14.23;;
77099;SDS011;66602;48.922;2.414;2023-04-19T05:30:32;20.20;;;13.57;;
77099;SDS011;66602;48.922;2.414;2023-04-19T05:32:58;15.68;;;13.60;;
77099;SDS011;66602;48.922;2.414;2023-04-19T05:35:23;17.73;;;14.20;;
77099;SDS011;66602;48.922;2.414;2023-04-19T05:37:49;26.80;;;16.25;;
77099;SDS011;66602;48.922;2.414;2023-04-19T05:40:14;19.85;;;16.25;;
77099;SDS011;66602;48.922;2.414;2023-04-19T05:42:40;17.02;;;13.52;;
77099;SDS011;66602;48.922;2.414;2023-04-19T05:45:06;23.30;;;14.75;;
77099;SDS011;66602;48.922;2.414;2023-04-19T05:47:32;17.55;;;15.60;;
77099;SDS011;66602;48.922;2.414;2023-04-19T05:49:57;17.58;;;15.00;;
77099;SDS011;66602;48.922;2.414;2023-04-19T05:52:23;18.58;;;14.85;;
77099;SDS011;66602;48.922;2.414;2023-04-19T05:54:54;15.43;;;13.93;;
77099;SDS011;66602;48.922;2.414;2023-04-19T05:57:20;21.17;;;15.55;;
77099;SDS011;66602;48.922;2.414;2023-04-19T05:59:45;19.90;;;13.88;;
77099;SDS011;66602;48.922;2.414;2023-04-19T06:02:11;21.02;;;15.23;;
77099;SDS011;66602;48.922;2.414;2023-04-19T06:04:36;15.50;;;13.30;;
77099;SDS011;66602;48.922;2.414;2023-04-19T06:07:02;24.42;;;15.30;;
77099;SDS011;66602;48.922;2.414;2023-04-19T06:09:27;25.48;;;14.52;;
77099;SDS011;66602;48.922;2.414;2023-04-19T06:11:53;18.50;;;13.38;;
77099;SDS011;66602;48.922;2.414;2023-04-19T06:14:18;16.08;;;13.13;;
77099;SDS011;66602;48.922;2.414;2023-04-19T06:16:44;18.52;;;14.02;;
77099;SDS011;66602;48.922;2.414;2023-04-19T06:19:10;14.60;;;13.32;;
77099;SDS011;66602;48.922;2.414;2023-04-19T06:21:36;15.80;;;14.23;;
77099;SDS011;66602;48.922;2.414;2023-04-19T06:24:01;13.35;;;12.15;;
77099;SDS011;66602;48.922;2.414;2023-04-19T06:26:27;19.48;;;13.45;;
77099;SDS011;66602;48.922;2.414;2023-04-19T06:28:53;13.32;;;12.13;;
77099;SDS011;66602;48.922;2.414;2023-04-19T06:31:18;13.95;;;12.13;;
77099;SDS011;66602;48.922;2.414;2023-04-19T06:33:44;16.65;;;12.77;;
77099;SDS011;66602;48.922;2.414;2023-04-19T06:36:10;15.43;;;12.32;;
77099;SDS011;66602;48.922;2.414;2023-04-19T06:38:35;14.43;;;12.63;;
77099;SDS011;66602;48.922;2.414;2023-04-19T06:41:02;12.98;;;11.68;;
77099;SDS011;66602;48.922;2.414;2023-04-19T06:43:28;17.13;;;12.32;;
77099;SDS011;66602;48.922;2.414;2023-04-19T06:45:57;13.55;;;12.07;;
77099;SDS011;66602;48.922;2.414;2023-04-19T06:48:26;12.95;;;11.65;;
77099;SDS011;66602;48.922;2.414;2023-04-19T06:50:53;23.20;;;13.70;;
77099;SDS011;66602;48.922;2.414;2023-04-19T06:53:19;12.90;;;11.70;;
77099;SDS011;66602;48.922;2.414;2023-04-19T06:55:44;13.90;;;12.32;;
77099;SDS011;66602;48.922;2.414;2023-04-19T06:58:10;15.50;;;11.30;;
77099;SDS011;66602;48.922;2.414;2023-04-19T07:00:36;11.45;;;10.43;;
77099;SDS011;66602;48.922;2.414;2023-04-19T07:03:01;10.70;;;9.70;;
77099;SDS011;66602;48.922;2.414;2023-04-19T07:05:27;10.10;;;9.38;;
77099;SDS011;66602;48.922;2.414;2023-04-19T07:07:54;10.68;;;9.55;;
77099;SDS011;66602;48.922;2.414;2023-04-19T07:10:19;9.93;;;9.23;;
77099;SDS011;66602;48.922;2.414;2023-04-19T07:12:44;9.82;;;8.82;;
77099;SDS011;66602;48.922;2.414;2023-04-19T07:15:10;9.90;;;8.00;;
77099;SDS011;66602;48.922;2.414;2023-04-19T07:17:36;9.40;;;8.60;;
77099;SDS011;66602;48.922;2.414;2023-04-19T07:20:02;9.00;;;8.38;;
77099;SDS011;66602;48.922;2.414;2023-04-19T07:22:29;9.40;;;8.55;;
77099;SDS011;66602;48.922;2.414;2023-04-19T07:24:54;12.32;;;7.82;;
77099;SDS011;66602;48.922;2.414;2023-04-19T07:27:20;11.38;;;7.95;;
77099;SDS011;66602;48.922;2.414;2023-04-19T07:29:45;9.60;;;8.63;;
77099;SDS011;66602;48.922;2.414;2023-04-19T07:32:11;8.75;;;8.18;;
77099;SDS011;66602;48.922;2.414;2023-04-19T07:34:37;9.30;;;8.48;;
77099;SDS011;66602;48.922;2.414;2023-04-19T07:37:05;9.18;;;8.38;;
77099;SDS011;66602;48.922;2.414;2023-04-19T07:39:31;9.00;;;8.27;;
77099;SDS011;66602;48.922;2.414;2023-04-19T07:41:57;9.35;;;8.43;;
77099;SDS011;66602;48.922;2.414;2023-04-19T07:44:23;8.90;;;8.07;;
77099;SDS011;66602;48.922;2.414;2023-04-19T07:46:48;8.43;;;7.63;;
77099;SDS011;66602;48.922;2.414;2023-04-19T07:49:16;9.80;;;8.85;;
77099;SDS011;66602;48.922;2.414;2023-04-19T07:51:41;8.82;;;8.10;;
77099;SDS011;66602;48.922;2.414;2023-04-19T07:54:07;9.25;;;8.30;;
77099;SDS011;66602;48.922;2.414;2023-04-19T07:56:32;8.88;;;8.05;;
77099;SDS011;66602;48.922;2.414;2023-04-19T07:58:58;8.55;;;7.95;;
77099;SDS011;66602;48.922;2.414;2023-04-19T08:01:24;8.10;;;7.35;;
77099;SDS011;66602;48.922;2.414;2023-04-19T08:03:50;8.38;;;7.80;;
77099;SDS011;66602;48.922;2.414;2023-04-19T08:06:15;8.82;;;7.93;;
77099;SDS011;66602;48.922;2.414;2023-04-19T08:08:42;8.57;;;7.65;;
77099;SDS011;66602;48.922;2.414;2023-04-19T08:11:07;8.45;;;7.95;;
77099;SDS011;66602;48.922;2.414;2023-04-19T08:13:35;8.45;;;7.90;;
77099;SDS011;66602;48.922;2.414;2023-04-19T08:16:00;8.55;;;7.95;;
77099;SDS011;66602;48.922;2.414;2023-04-19T08:18:26;8.13;;;7.57;;
77099;SDS011;66602;48.922;2.414;2023-04-19T08:20:51;7.43;;;6.93;;
77099;SDS011;66602;48.922;2.414;2023-04-19T08:23:17;8.32;;;7.78;;
77099;SDS011;66602;48.922;2.414;2023-04-19T08:25:43;7.75;;;7.15;;
77099;SDS011;66602;48.922;2.414;2023-04-19T08:28:08;8.18;;;7.45;;
77099;SDS011;66602;48.922;2.414;2023-04-19T08:30:34;10.60;;;8.07;;
77099;SDS011;66602;48.922;2.414;2023-04-19T08:32:59;8.27;;;7.63;;
77099;SDS011;66602;48.922;2.414;2023-04-19T08:35:25;7.90;;;7.32;;
77099;SDS011;66602;48.922;2.414;2023-04-19T08:37:51;7.90;;;7.40;;
77099;SDS011;66602;48.922;2.414;2023-04-19T08:40:16;7.72;;;7.32;;
77099;SDS011;66602;48.922;2.414;2023-04-19T08:42:42;8.02;;;7.45;;
77099;SDS011;66602;48.922;2.414;2023-04-19T08:45:08;7.60;;;7.20;;
77099;SDS011;66602;48.922;2.414;2023-04-19T08:47:35;7.70;;;7.05;;
77099;SDS011;66602;48.922;2.414;2023-04-19T08:50:05;7.65;;;7.25;;
77099;SDS011;66602;48.922;2.414;2023-04-19T08:52:35;8.02;;;7.45;;
77099;SDS011;66602;48.922;2.414;2023-04-19T08:55:05;7.35;;;6.95;;
77099;SDS011;66602;48.922;2.414;2023-04-19T08:57:32;7.78;;;7.28;;
77099;SDS011;66602;48.922;2.414;2023-04-19T08:59:59;8.15;;;7.43;;
77099;SDS011;66602;48.922;2.414;2023-04-19T09:02:25;7.25;;;6.63;;
77099;SDS011;66602;48.922;2.414;2023-04-19T09:04:51;7.53;;;7.13;;
77099;SDS011;66602;48.922;2.414;2023-04-19T09:07:22;8.10;;;6.60;;
77099;SDS011;66602;48.922;2.414;2023-04-19T09:13:00;7.82;;;7.25;;
77099;SDS011;66602;48.922;2.414;2023-04-19T09:15:37;7.45;;;7.03;;
77099;SDS011;66602;48.922;2.414;2023-04-19T09:18:06;7.63;;;6.97;;
77099;SDS011;66602;48.922;2.414;2023-04-19T09:20:37;7.85;;;7.10;;
77099;SDS011;66602;48.922;2.414;2023-04-19T09:23:04;7.30;;;6.90;;
77099;SDS011;66602;48.922;2.414;2023-04-19T09:25:32;8.23;;;7.15;;
77099;SDS011;66602;48.922;2.414;2023-04-19T09:28:10;7.57;;;7.18;;
77099;SDS011;66602;48.922;2.414;2023-04-19T09:30:36;7.15;;;6.57;;
77099;SDS011;66602;48.922;2.414;2023-04-19T09:33:02;7.57;;;7.07;;
77099;SDS011;66602;48.922;2.414;2023-04-19T09:35:41;6.75;;;6.30;;
77099;SDS011;66602;48.922;2.414;2023-04-19T09:38:08;6.82;;;6.22;;
77099;SDS011;66602;48.922;2.414;2023-04-19T09:40:35;7.03;;;6.63;;
77099;SDS011;66602;48.922;2.414;2023-04-19T09:43:02;7.22;;;6.78;;
77099;SDS011;66602;48.922;2.414;2023-04-19T09:45:37;7.05;;;6.60;;
77099;SDS011;66602;48.922;2.414;2023-04-19T09:48:07;7.30;;;6.90;;
77099;SDS011;66602;48.922;2.414;2023-04-19T09:50:34;6.85;;;6.35;;
77099;SDS011;66602;48.922;2.414;2023-04-19T09:53:01;7.25;;;6.75;;
77099;SDS011;66602;48.922;2.414;2023-04-19T09:55:27;12.45;;;6.40;;
77099;SDS011;66602;48.922;2.414;2023-04-19T09:57:52;7.30;;;6.60;;
77099;SDS011;66602;48.922;2.414;2023-04-19T10:00:18;7.43;;;6.75;;
77099;SDS011;66602;48.922;2.414;2023-04-19T10:02:46;6.88;;;6.35;;
77099;SDS011;66602;48.922;2.414;2023-04-19T10:05:19;6.63;;;6.28;;
77099;SDS011;66602;48.922;2.414;2023-04-19T10:07:46;7.53;;;7.13;;
77099;SDS011;66602;48.922;2.414;2023-04-19T10:10:14;7.45;;;6.95;;
77099;SDS011;66602;48.922;2.414;2023-04-19T10:12:41;7.00;;;6.60;;
77099;SDS011;66602;48.922;2.414;2023-04-19T10:15:12;6.45;;;6.05;;
77099;SDS011;66602;48.922;2.414;2023-04-19T10:17:38;6.05;;;5.63;;
77099;SDS011;66602;48.922;2.414;2023-04-19T10:20:05;6.78;;;6.38;;
77099;SDS011;66602;48.922;2.414;2023-04-19T10:22:35;7.47;;;6.13;;
77099;SDS011;66602;48.922;2.414;2023-04-19T10:25:13;6.68;;;6.28;;
77099;SDS011;66602;48.922;2.414;2023-04-19T10:27:40;6.50;;;6.10;;
77099;SDS011;66602;48.922;2.414;2023-04-19T10:30:17;6.63;;;6.05;;
77099;SDS011;66602;48.922;2.414;2023-04-19T10:32:52;6.00;;;5.70;;
77099;SDS011;66602;48.922;2.414;2023-04-19T10:38:05;6.25;;;5.85;;
77099;SDS011;66602;48.922;2.414;2023-04-19T10:43:23;5.60;;;5.30;;
77099;SDS011;66602;48.922;2.414;2023-04-19T10:45:50;5.93;;;5.55;;
77099;SDS011;66602;48.922;2.414;2023-04-19T10:56:16;6.50;;;4.95;;
77099;SDS011;66602;48.922;2.414;2023-04-19T11:01:36;5.17;;;4.87;;
77099;SDS011;66602;48.922;2.414;2023-04-19T11:04:10;5.32;;;5.13;;
77099;SDS011;66602;48.922;2.414;2023-04-19T11:06:38;5.30;;;5.00;;
77099;SDS011;66602;48.922;2.414;2023-04-19T11:14:39;4.72;;;4.53;;
77099;SDS011;66602;48.922;2.414;2023-04-19T11:22:23;5.13;;;4.68;;
77099;SDS011;66602;48.922;2.414;2023-04-19T11:24:56;5.00;;;4.80;;
77099;SDS011;66602;48.922;2.414;2023-04-19T11:27:37;4.78;;;4.43;;
77099;SDS011;66602;48.922;2.414;2023-04-19T11:30:08;5.00;;;4.60;;
77099;SDS011;66602;48.922;2.414;2023-04-19T11:32:36;4.93;;;4.55;;
77099;SDS011;66602;48.922;2.414;2023-04-19T11:37:34;4.00;;;3.80;;
77099;SDS011;66602;48.922;2.414;2023-04-19T11:40:02;3.42;;;3.22;;
77099;SDS011;66602;48.922;2.414;2023-04-19T11:42:31;4.38;;;4.13;;
77099;SDS011;66602;48.922;2.414;2023-04-19T11:44:57;4.40;;;4.20;;
77099;SDS011;66602;48.922;2.414;2023-04-19T11:47:24;5.00;;;4.30;;
77099;SDS011;66602;48.922;2.414;2023-04-19T11:49:51;3.88;;;3.70;;
77099;SDS011;66602;48.922;2.414;2023-04-19T11:52:23;3.95;;;3.60;;
77099;SDS011;66602;48.922;2.414;2023-04-19T11:54:53;4.40;;;3.80;;
77099;SDS011;66602;48.922;2.414;2023-04-19T11:57:29;3.20;;;3.10;;
77099;SDS011;66602;48.922;2.414;2023-04-19T12:00:05;4.10;;;3.90;;
77099;SDS011;66602;48.922;2.414;2023-04-19T12:02:36;3.63;;;3.42;;
77099;SDS011;66602;48.922;2.414;2023-04-19T12:05:08;3.60;;;3.40;;
77099;SDS011;66602;48.922;2.414;2023-04-19T12:07:34;3.80;;;3.50;;
77099;SDS011;66602;48.922;2.414;2023-04-19T12:10:07;4.30;;;4.10;;
77099;SDS011;66602;48.922;2.414;2023-04-19T12:12:34;3.85;;;3.65;;
77099;SDS011;66602;48.922;2.414;2023-04-19T12:15:00;3.17;;;3.08;;
77099;SDS011;66602;48.922;2.414;2023-04-19T12:17:25;3.80;;;3.60;;
77099;SDS011;66602;48.922;2.414;2023-04-19T12:19:51;3.75;;;3.55;;
77099;SDS011;66602;48.922;2.414;2023-04-19T12:22:17;3.78;;;3.47;;
77099;SDS011;66602;48.922;2.414;2023-04-19T12:24:51;3.60;;;3.40;;
77099;SDS011;66602;48.922;2.414;2023-04-19T12:27:17;3.70;;;3.40;;
77099;SDS011;66602;48.922;2.414;2023-04-19T12:29:43;3.03;;;2.92;;
77099;SDS011;66602;48.922;2.414;2023-04-19T12:32:09;3.10;;;2.90;;
77099;SDS011;66602;48.922;2.414;2023-04-19T12:34:35;3.05;;;2.92;;
77099;SDS011;66602;48.922;2.414;2023-04-19T12:37:01;2.70;;;2.60;;
77099;SDS011;66602;48.922;2.414;2023-04-19T12:39:28;2.80;;;2.50;;
77099;SDS011;66602;48.922;2.414;2023-04-19T12:41:54;2.80;;;2.70;;
77099;SDS011;66602;48.922;2.414;2023-04-19T12:44:20;2.70;;;2.60;;
77099;SDS011;66602;48.922;2.414;2023-04-19T12:46:46;2.70;;;2.60;;
77099;SDS011;66602;48.922;2.414;2023-04-19T12:49:11;2.78;;;2.67;;
77099;SDS011;66602;48.922;2.414;2023-04-19T12:51:37;2.60;;;2.50;;
77099;SDS011;66602;48.922;2.414;2023-04-19T12:54:02;2.53;;;2.40;;
77099;SDS011;66602;48.922;2.414;2023-04-19T12:56:28;2.25;;;2.15;;
77099;SDS011;66602;48.922;2.414;2023-04-19T12:58:53;2.35;;;2.25;;
77099;SDS011;66602;48.922;2.414;2023-04-19T13:01:19;2.38;;;2.20;;
77099;SDS011;66602;48.922;2.414;2023-04-19T13:03:44;2.50;;;2.40;;
77099;SDS011;66602;48.922;2.414;2023-04-19T13:06:10;4.18;;;2.53;;
77099;SDS011;66602;48.922;2.414;2023-04-19T13:08:38;2.65;;;2.47;;
77099;SDS011;66602;48.922;2.414;2023-04-19T13:11:04;2.58;;;2.40;;
77099;SDS011;66602;48.922;2.414;2023-04-19T13:13:30;2.95;;;2.13;;
77099;SDS011;66602;48.922;2.414;2023-04-19T13:15:55;2.53;;;2.30;;
77099;SDS011;66602;48.922;2.414;2023-04-19T13:18:20;2.40;;;2.28;;
77099;SDS011;66602;48.922;2.414;2023-04-19T13:20:46;2.35;;;2.25;;
77099;SDS011;66602;48.922;2.414;2023-04-19T13:23:12;2.30;;;2.20;;
77099;SDS011;66602;48.922;2.414;2023-04-19T13:25:38;4.18;;;2.10;;
77099;SDS011;66602;48.922;2.414;2023-04-19T13:28:03;3.00;;;2.60;;
77099;SDS011;66602;48.922;2.414;2023-04-19T13:30:29;6.55;;;2.40;;
77099;SDS011;66602;48.922;2.414;2023-04-19T13:32:54;2.83;;;2.72;;
77099;SDS011;66602;48.922;2.414;2023-04-19T13:35:20;2.67;;;2.58;;
77099;SDS011;66602;48.922;2.414;2023-04-19T13:37:46;2.60;;;2.50;;
77099;SDS011;66602;48.922;2.414;2023-04-19T13:40:11;2.28;;;2.17;;
77099;SDS011;66602;48.922;2.414;2023-04-19T13:42:37;2.53;;;2.33;;
77099;SDS011;66602;48.922;2.414;2023-04-19T13:45:03;2.40;;;2.30;;
77099;SDS011;66602;48.922;2.414;2023-04-19T13:47:29;8.30;;;2.40;;
77099;SDS011;66602;48.922;2.414;2023-04-19T13:49:55;2.45;;;2.35;;
77099;SDS011;66602;48.922;2.414;2023-04-19T13:52:20;2.33;;;2.22;;
77099;SDS011;66602;48.922;2.414;2023-04-19T13:54:47;4.95;;;2.38;;
77099;SDS011;66602;48.922;2.414;2023-04-19T13:57:13;2.25;;;2.15;;
77099;SDS011;66602;48.922;2.414;2023-04-19T13:59:38;2.88;;;2.00;;
77099;SDS011;66602;48.922;2.414;2023-04-19T14:02:04;2.40;;;2.30;;
77099;SDS011;66602;48.922;2.414;2023-04-19T14:04:30;2.53;;;2.42;;
77099;SDS011;66602;48.922;2.414;2023-04-19T14:06:56;2.17;;;2.08;;
77099;SDS011;66602;48.922;2.414;2023-04-19T14:09:21;2.72;;;2.63;;
77099;SDS011;66602;48.922;2.414;2023-04-19T14:11:47;2.33;;;2.22;;
77099;SDS011;66602;48.922;2.414;2023-04-19T14:14:13;2.40;;;2.20;;
77099;SDS011;66602;48.922;2.414;2023-04-19T14:16:39;1.83;;;1.80;;
77099;SDS011;66602;48.922;2.414;2023-04-19T14:19:05;2.42;;;2.22;;
77099;SDS011;66602;48.922;2.414;2023-04-19T14:21:30;2.20;;;2.10;;
77099;SDS011;66602;48.922;2.414;2023-04-19T14:23:56;2.08;;;1.98;;
77099;SDS011;66602;48.922;2.414;2023-04-19T14:26:21;2.40;;;2.20;;
77099;SDS011;66602;48.922;2.414;2023-04-19T14:28:47;2.28;;;2.17;;
77099;SDS011;66602;48.922;2.414;2023-04-19T14:31:13;2.25;;;2.15;;
77099;SDS011;66602;48.922;2.414;2023-04-19T14:33:38;2.78;;;2.25;;
77099;SDS011;66602;48.922;2.414;2023-04-19T14:36:04;2.97;;;1.90;;
77099;SDS011;66602;48.922;2.414;2023-04-19T14:38:29;1.85;;;1.77;;
77099;SDS011;66602;48.922;2.414;2023-04-19T14:40:55;1.58;;;1.58;;
77099;SDS011;66602;48.922;2.414;2023-04-19T14:43:20;4.43;;;2.75;;
77099;SDS011;66602;48.922;2.414;2023-04-19T14:45:50;2.60;;;2.40;;
77099;SDS011;66602;48.922;2.414;2023-04-19T14:48:16;2.17;;;2.08;;
77099;SDS011;66602;48.922;2.414;2023-04-19T14:50:41;1.80;;;1.70;;
77099;SDS011;66602;48.922;2.414;2023-04-19T14:53:07;1.77;;;1.77;;
77099;SDS011;66602;48.922;2.414;2023-04-19T14:55:33;2.10;;;2.00;;
77099;SDS011;66602;48.922;2.414;2023-04-19T14:58:00;2.20;;;2.10;;
77099;SDS011;66602;48.922;2.414;2023-04-19T15:00:26;2.17;;;1.95;;
77099;SDS011;66602;48.922;2.414;2023-04-19T15:02:51;2.80;;;1.80;;
77099;SDS011;66602;48.922;2.414;2023-04-19T15:05:17;2.10;;;2.00;;